Cecil, Wisconsin
Current Conditions -  °F | °C
As of 6:35 AM on Thursday 29 Jan 2015 (Local Time) from KEZS Reporting Station
Overcast Overcast  
Wind Chill: 24°   Ceiling: 4400
Heat Index: 31°   Visibility: 7mi
Dew Point: 26°   Wind: 7mph
Humidity: 82%   Direction: 310°NW
Pressure: 29.81"   Gusts: NA
Location:  44.81°N, 88.45°W
Report Text: KEZS 291235Z AUTO 31006KT 7SM SCT013 OVC044 M01/M03 A2981 RMK AO2 T10071035
Loading
Personal Weather Stations






























Interactive Weather Map New forecast layout! Learn more

10-Day Weather Forecast

Advertisements
Track Severe Weather on mobile